Time;durP1;ratioP1;P1;durP2;ratioP2;P2;SDS_P1;SDS_P2;PMS_P1;PMS_P2;Temp;Humidity;BMP_temperature;BMP_pressure;BME280_temperature;BME280_humidity;BME280_pressure;Samples;Min_cycle;Max_cycle;Signal;HPM_P1;HPM_P2
2022/06/03 00:00:22;;;;;;;4.38;2.33;;;10.50;99.90;;;;;;5111312;28;20046;-72
2022/06/03 00:03:25;;;;;;;4.28;2.35;;;10.50;99.90;;;;;;5111542;28;20047;-73
2022/06/03 00:05:51;;;;;;;6.53;2.38;;;10.50;99.90;;;;;;5111235;28;20052;-72
2022/06/03 00:08:35;;;;;;;5.05;2.47;;;10.50;99.90;;;;;;5111775;28;20053;-73
2022/06/03 00:11:30;;;;;;;4.13;2.55;;;10.40;99.90;;;;;;5111887;28;20126;-72
2022/06/03 00:14:29;;;;;;;5.03;2.63;;;10.40;99.90;;;;;;5094014;28;20097;-73
2022/06/03 00:17:20;;;;;;;4.85;2.70;;;10.40;99.90;;;;;;5111676;28;20492;-72
2022/06/03 00:20:03;;;;;;;4.90;2.50;;;10.40;99.90;;;;;;5111952;28;20043;-72
2022/06/03 00:22:44;;;;;;;3.58;2.15;;;10.30;99.90;;;;;;5111952;28;20040;-72
2022/06/03 00:25:26;;;;;;;4.38;2.67;;;9.90;99.90;;;;;;5110965;28;20591;-74
2022/06/03 00:28:15;;;;;;;3.35;2.65;;;10.30;99.90;;;;;;5111587;28;20488;-72
2022/06/03 00:30:49;;;;;;;3.63;2.60;;;10.20;99.90;;;;;;5110630;28;20507;-72
2022/06/03 00:33:20;;;;;;;3.78;2.42;;;10.20;99.90;;;;;;5110901;28;20098;-72
2022/06/03 00:36:14;;;;;;;4.90;2.45;;;10.20;99.90;;;;;;5110590;28;20844;-72
2022/06/03 00:39:17;;;;;;;3.83;2.58;;;10.20;99.90;;;;;;5111288;28;20127;-72
2022/06/03 00:42:07;;;;;;;5.60;2.58;;;10.20;99.90;;;;;;5109529;28;20051;-72
2022/06/03 00:44:48;;;;;;;3.97;2.53;;;10.20;99.90;;;;;;5097875;28;20051;-72
2022/06/03 00:47:20;;;;;;;4.68;2.67;;;10.20;99.90;;;;;;5111367;28;20100;-72
2022/06/03 00:50:11;;;;;;;3.97;2.55;;;10.20;99.90;;;;;;5109832;28;20067;-72
2022/06/03 00:52:46;;;;;;;4.63;2.92;;;10.20;99.90;;;;;;5110987;28;20522;-72
2022/06/03 00:55:23;;;;;;;3.95;2.55;;;10.20;99.90;;;;;;5110934;28;20126;-72
2022/06/03 00:58:30;;;;;;;5.30;2.70;;;10.10;99.90;;;;;;5111317;28;20055;-72
2022/06/03 01:01:15;;;;;;;;;;;10.10;99.90;;;;;;5072715;28;20408;-73
2022/06/03 01:04:21;;;;;;;7.22;2.95;;;10.10;99.90;;;;;;5111163;28;19959;-72
2022/06/03 01:06:59;;;;;;;4.22;2.50;;;10.00;99.90;;;;;;5109889;28;20059;-73
2022/06/03 01:09:28;;;;;;;4.15;2.40;;;10.00;99.90;;;;;;5111418;28;20557;-72
2022/06/03 01:12:03;;;;;;;3.70;2.47;;;10.00;99.90;;;;;;5113718;28;20130;-75
2022/06/03 01:15:06;;;;;;;4.13;2.67;;;10.00;99.90;;;;;;5115279;28;20484;-72
2022/06/03 01:17:42;;;;;;;3.58;2.67;;;10.00;99.90;;;;;;5114867;28;20338;-72
2022/06/03 01:20:16;;;;;;;3.65;2.63;;;9.90;99.90;;;;;;5115420;28;20054;-72
2022/06/03 01:23:17;;;;;;;4.35;2.55;;;9.80;99.90;;;;;;5114975;28;20047;-72
2022/06/03 01:25:52;;;;;;;3.75;2.72;;;9.80;99.90;;;;;;5114566;28;21695;-73
2022/06/03 01:28:29;;;;;;;4.63;2.90;;;9.80;99.90;;;;;;5113898;28;20059;-73
2022/06/03 01:31:27;;;;;;;4.20;2.53;;;9.80;99.90;;;;;;5114895;28;20530;-73
2022/06/03 01:34:14;;;;;;;4.85;2.97;;;9.70;99.90;;;;;;5115183;28;20052;-73
2022/06/03 01:36:52;;;;;;;4.28;2.60;;;9.70;99.90;;;;;;5114560;28;20043;-74
2022/06/03 01:39:45;;;;;;;3.92;2.63;;;9.70;99.90;;;;;;5114739;28;20036;-72
2022/06/03 01:42:38;;;;;;;4.35;2.50;;;9.70;99.90;;;;;;5114573;28;20044;-72
2022/06/03 01:45:29;;;;;;;4.82;2.88;;;9.70;99.90;;;;;;5114894;28;20043;-72
2022/06/03 01:48:10;;;;;;;5.47;2.72;;;9.70;99.90;;;;;;5114344;28;20073;-74
2022/06/03 01:50:50;;;;;;;4.00;2.80;;;9.70;99.90;;;;;;5114871;28;20048;-73
2022/06/03 01:54:00;;;;;;;3.90;2.70;;;9.60;99.90;;;;;;5113428;28;20073;-74
2022/06/03 01:56:41;;;;;;;4.38;2.67;;;9.60;99.90;;;;;;5114561;28;20050;-72
2022/06/03 01:59:16;;;;;;;3.63;2.80;;;9.60;99.90;;;;;;5114397;28;20031;-72
2022/06/03 02:01:49;;;;;;;5.85;3.63;;;9.60;99.90;;;;;;5113650;28;20082;-72
2022/06/03 02:04:40;;;;;;;5.47;3.10;;;9.60;99.90;;;;;;5105177;28;20062;-73
2022/06/03 02:07:24;;;;;;;4.45;2.88;;;9.60;99.90;;;;;;5114441;28;20044;-72
2022/06/03 02:10:41;;;;;;;5.72;3.08;;;9.60;99.90;;;;;;5108725;28;20479;-72
2022/06/03 02:13:06;;;;;;;5.53;3.10;;;9.50;99.90;;;;;;5041649;28;20048;-72
2022/06/03 02:15:50;;;;;;;5.68;3.22;;;9.50;99.90;;;;;;5113634;28;20055;-72
2022/06/03 02:18:53;;;;;;;5.03;2.88;;;9.50;99.90;;;;;;5114196;28;20043;-75
2022/06/03 02:21:49;;;;;;;5.85;3.20;;;9.50;99.90;;;;;;5113102;28;20044;-72
2022/06/03 02:24:36;;;;;;;4.22;2.80;;;9.40;99.90;;;;;;5101481;28;20051;-73
2022/06/03 02:27:18;;;;;;;;;;;9.40;99.90;;;;;;5114451;28;20104;-72
2022/06/03 02:33:07;;;;;;;5.55;3.38;;;9.30;99.90;;;;;;5113071;28;20052;-72
2022/06/03 02:35:54;;;;;;;5.20;3.23;;;9.30;99.90;;;;;;5093946;28;20399;-72
2022/06/03 02:38:19;;;;;;;4.88;3.10;;;9.30;99.90;;;;;;5093611;28;20335;-72
2022/06/03 02:41:01;;;;;;;6.07;3.30;;;9.20;99.90;;;;;;5108854;28;20480;-72
2022/06/03 02:44:01;;;;;;;5.15;3.80;;;9.20;99.90;;;;;;5106716;28;20040;-72
2022/06/03 02:46:39;;;;;;;6.18;3.70;;;9.20;99.90;;;;;;5113711;28;20051;-72
2022/06/03 02:49:25;;;;;;;4.65;3.22;;;9.20;99.90;;;;;;5112899;28;20051;-74
2022/06/03 02:52:35;;;;;;;6.57;3.53;;;9.20;99.90;;;;;;5113123;28;20395;-72
2022/06/03 02:55:45;;;;;;;6.05;3.55;;;9.10;99.90;;;;;;5113339;28;20055;-72
2022/06/03 02:58:25;;;;;;;6.50;3.53;;;9.10;99.90;;;;;;5009803;28;20053;-72
2022/06/03 03:01:24;;;;;;;4.40;3.40;;;9.10;99.90;;;;;;5109434;28;20058;-72
2022/06/03 03:04:11;;;;;;;6.30;3.42;;;9.00;99.90;;;;;;5112987;28;20091;-72
2022/06/03 03:06:54;;;;;;;5.88;3.60;;;9.00;99.90;;;;;;5113350;28;20104;-72
2022/06/03 03:09:34;;;;;;;5.38;3.50;;;9.00;99.90;;;;;;5113212;28;20092;-72
2022/06/03 03:12:31;;;;;;;6.03;3.85;;;9.00;99.90;;;;;;5112693;28;20587;-72
2022/06/03 03:15:16;;;;;;;5.00;3.33;;;9.00;99.90;;;;;;5113120;28;20062;-73
2022/06/03 03:18:16;;;;;;;6.28;3.78;;;9.00;99.90;;;;;;5113162;28;20403;-72
2022/06/03 03:20:53;;;;;;;5.70;3.92;;;9.00;99.90;;;;;;5113119;28;20079;-72
2022/06/03 03:23:38;;;;;;;5.57;3.50;;;8.90;99.90;;;;;;5112518;28;20048;-72
2022/06/03 03:26:16;;;;;;;5.07;3.88;;;8.90;99.90;;;;;;5112691;28;20103;-72
2022/06/03 03:29:04;;;;;;;5.72;3.78;;;8.80;99.90;;;;;;5112892;28;20047;-74
2022/06/03 03:31:53;;;;;;;5.53;3.90;;;8.80;99.90;;;;;;5099015;28;20179;-73
2022/06/03 03:34:22;;;;;;;5.07;3.45;;;8.80;99.90;;;;;;5108711;28;20123;-73
2022/06/03 03:37:06;;;;;;;5.13;3.67;;;8.70;99.90;;;;;;5109376;28;20062;-74
2022/06/03 03:39:58;;;;;;;6.03;3.83;;;8.80;99.90;;;;;;5109488;28;20043;-72
2022/06/03 03:42:42;;;;;;;6.07;4.00;;;8.80;99.90;;;;;;5064746;28;20415;-72
2022/06/03 03:45:07;;;;;;;5.20;3.58;;;8.80;99.90;;;;;;5112329;28;20522;-72
2022/06/03 03:48:29;;;;;;;5.72;4.15;;;8.80;99.90;;;;;;5112177;28;20108;-72
2022/06/03 03:51:31;;;;;;;6.07;3.80;;;8.80;99.90;;;;;;5028600;28;20099;-72
2022/06/03 03:54:03;;;;;;;6.13;4.20;;;8.80;99.90;;;;;;5029283;28;20045;-71
2022/06/03 03:57:06;;;;;;;5.85;3.95;;;8.90;99.90;;;;;;5085435;28;20091;-73
2022/06/03 04:00:01;;;;;;;5.93;3.85;;;8.90;99.90;;;;;;5111819;28;20497;-72
2022/06/03 04:02:45;;;;;;;6.00;4.00;;;8.90;99.90;;;;;;5111596;28;20040;-72
2022/06/03 04:05:55;;;;;;;4.95;3.40;;;9.00;99.90;;;;;;5112297;28;20044;-72
2022/06/03 04:08:52;;;;;;;5.03;3.75;;;9.00;99.90;;;;;;5090784;28;20058;-72
2022/06/03 04:11:35;;;;;;;5.63;3.77;;;9.10;99.90;;;;;;5111101;28;20097;-72
2022/06/03 04:14:32;;;;;;;5.90;3.78;;;9.10;99.90;;;;;;5111671;28;20050;-73
2022/06/03 04:17:41;;;;;;;6.32;4.00;;;9.10;99.90;;;;;;5112169;28;20217;-72
2022/06/03 04:20:24;;;;;;;6.22;3.90;;;9.20;99.90;;;;;;5110879;28;20047;-72
2022/06/03 04:23:01;;;;;;;7.95;4.10;;;9.20;99.90;;;;;;5111645;28;20059;-72
2022/06/03 04:25:41;;;;;;;7.30;4.53;;;9.20;99.90;;;;;;5112025;28;20119;-72
2022/06/03 04:28:41;;;;;;;6.03;4.13;;;9.20;99.90;;;;;;5105110;28;20043;-72
2022/06/03 04:31:25;;;;;;;5.43;4.00;;;9.40;99.90;;;;;;5111405;28;20559;-72
2022/06/03 04:33:55;;;;;;;6.45;4.28;;;9.40;99.90;;;;;;5105601;28;20052;-73
2022/06/03 04:37:03;;;;;;;8.43;4.47;;;9.50;99.90;;;;;;5111716;28;20119;-72
2022/06/03 04:39:41;;;;;;;6.55;4.07;;;9.60;99.90;;;;;;5099948;28;20051;-72
2022/06/03 04:42:28;;;;;;;6.70;4.53;;;9.70;99.90;;;;;;5111383;28;20047;-73
2022/06/03 04:45:13;;;;;;;7.15;4.45;;;9.70;99.90;;;;;;5111110;28;20490;-72
2022/06/03 04:48:03;;;;;;;8.07;4.50;;;9.80;99.90;;;;;;5111548;28;20077;-72
2022/06/03 04:50:53;;;;;;;7.80;4.50;;;9.90;99.90;;;;;;5111333;28;20514;-72
2022/06/03 04:53:46;;;;;;;6.25;4.38;;;10.10;99.90;;;;;;5108180;28;20860;-72
2022/06/03 04:56:30;;;;;;;6.53;4.53;;;10.20;99.90;;;;;;5091450;28;20052;-72
2022/06/03 04:59:20;;;;;;;6.97;4.70;;;10.30;99.90;;;;;;5110305;28;20127;-72
2022/06/03 05:02:23;;;;;;;6.00;4.22;;;10.50;99.90;;;;;;5110539;28;20043;-72
2022/06/03 05:05:10;;;;;;;7.75;4.82;;;10.60;99.90;;;;;;5111429;28;20069;-73
2022/06/03 05:08:06;;;;;;;7.00;4.72;;;10.70;99.90;;;;;;5110687;28;20051;-73
2022/06/03 05:10:38;;;;;;;9.68;4.90;;;10.90;99.90;;;;;;5111100;28;20077;-72
2022/06/03 05:13:42;;;;;;;7.10;4.75;;;11.00;99.90;;;;;;5111246;28;20079;-72
2022/06/03 05:16:44;;;;;;;8.73;5.32;;;11.10;99.90;;;;;;5110936;28;20059;-73
2022/06/03 05:19:30;;;;;;;10.20;5.78;;;11.20;99.90;;;;;;5077969;28;20130;-72
2022/06/03 05:22:21;;;;;;;7.88;4.85;;;11.40;99.90;;;;;;5110948;28;20089;-72
2022/06/03 05:25:10;;;;;;;9.02;5.40;;;11.50;99.90;;;;;;5102786;28;20051;-72
2022/06/03 05:27:41;;;;;;;7.30;5.68;;;11.60;99.90;;;;;;5111448;28;20400;-72
2022/06/03 05:30:28;;;;;;;9.75;5.32;;;11.70;99.90;;;;;;5111099;28;20122;-72
2022/06/03 05:33:31;;;;;;;8.27;5.88;;;11.80;99.90;;;;;;5110646;28;20052;-72
2022/06/03 05:36:24;;;;;;;7.38;5.68;;;11.90;99.90;;;;;;5110426;28;20462;-72
2022/06/03 05:39:14;;;;;;;8.20;5.68;;;12.00;99.90;;;;;;5093199;28;20057;-73
2022/06/03 05:42:23;;;;;;;8.65;5.60;;;12.10;99.90;;;;;;5099195;28;20043;-73
2022/06/03 05:44:52;;;;;;;8.88;5.72;;;12.20;99.90;;;;;;5110774;28;20553;-73
2022/06/03 05:47:20;;;;;;;10.35;5.70;;;12.30;99.90;;;;;;5109791;28;20059;-72
2022/06/03 05:50:43;;;;;;;8.98;5.03;;;12.40;99.90;;;;;;5110683;28;20400;-73
2022/06/03 05:53:29;;;;;;;8.70;5.70;;;12.50;99.90;;;;;;5027508;28;20417;-72
2022/06/03 05:56:16;;;;;;;7.00;5.25;;;12.60;99.90;;;;;;4995079;28;20101;-73
2022/06/03 05:59:04;;;;;;;9.43;5.03;;;12.70;99.90;;;;;;5092559;28;20160;-73
2022/06/03 06:02:05;;;;;;;6.97;4.95;;;12.80;99.90;;;;;;5114463;28;20082;-73
2022/06/03 06:04:55;;;;;;;7.85;5.00;;;12.90;99.90;;;;;;5031133;28;20144;-72
2022/06/03 06:07:39;;;;;;;8.32;5.30;;;13.00;99.90;;;;;;5104491;28;20052;-73
2022/06/03 06:10:42;;;;;;;6.82;5.28;;;13.10;99.90;;;;;;5113051;28;20151;-72
2022/06/03 06:13:10;;;;;;;7.05;4.75;;;13.30;99.90;;;;;;5102979;28;20597;-73
2022/06/03 06:15:48;;;;;;;8.27;5.45;;;13.40;99.90;;;;;;5112976;28;20406;-74
2022/06/03 06:18:50;;;;;;;10.05;5.60;;;13.40;99.90;;;;;;5114379;28;20087;-76
2022/06/03 06:21:50;;;;;;;10.00;5.50;;;13.60;99.90;;;;;;5114202;28;20071;-73
2022/06/03 06:24:34;;;;;;;9.20;4.88;;;13.70;99.90;;;;;;5110105;28;20047;-72
2022/06/03 06:27:37;;;;;;;7.28;4.65;;;13.80;99.90;;;;;;5114144;28;20055;-74
2022/06/03 06:30:17;;;;;;;9.02;4.60;;;13.90;99.90;;;;;;5114023;28;20118;-72
2022/06/03 06:33:11;;;;;;;6.15;3.92;;;14.00;99.90;;;;;;5111988;28;20511;-73
2022/06/03 06:35:58;;;;;;;6.93;4.75;;;14.10;99.90;;;;;;5113823;28;20048;-75
2022/06/03 06:38:42;;;;;;;6.22;4.60;;;14.20;99.90;;;;;;5112247;28;20075;-74
2022/06/03 06:41:36;;;;;;;7.68;4.32;;;14.30;99.90;;;;;;5110963;28;20042;-74
2022/06/03 06:44:37;;;;;;;7.88;4.55;;;14.40;99.90;;;;;;5113282;28;20089;-73
2022/06/03 06:47:33;;;;;;;8.13;4.85;;;14.50;99.90;;;;;;5113773;28;20052;-75
2022/06/03 06:50:20;;;;;;;5.35;3.90;;;14.60;99.90;;;;;;5112909;28;20074;-74
2022/06/03 06:52:55;;;;;;;7.00;4.20;;;14.70;99.90;;;;;;5113310;28;20051;-75
2022/06/03 06:56:02;;;;;;;7.22;4.20;;;14.90;99.90;;;;;;5113539;28;20046;-75
2022/06/03 06:58:56;;;;;;;7.05;3.92;;;15.00;99.90;;;;;;5066871;28;20059;-74
2022/06/03 07:01:36;;;;;;;4.70;3.53;;;15.10;99.90;;;;;;5086460;28;20048;-75
2022/06/03 07:04:13;;;;;;;6.57;3.88;;;15.20;99.90;;;;;;5109443;28;20122;-75
2022/06/03 07:06:54;;;;;;;5.80;3.63;;;15.30;99.90;;;;;;5111921;28;20127;-75
2022/06/03 07:09:23;;;;;;;5.80;3.72;;;15.40;99.90;;;;;;5113275;28;20527;-72
2022/06/03 07:12:09;;;;;;;6.90;3.92;;;15.50;99.90;;;;;;5112932;28;20051;-75
2022/06/03 07:14:43;;;;;;;4.60;3.28;;;15.50;99.90;;;;;;5112436;28;20056;-75
2022/06/03 07:20:50;;;;;;;6.22;3.75;;;15.60;99.90;;;;;;5102393;28;20521;-74
2022/06/03 07:23:45;;;;;;;5.70;4.13;;;15.70;99.90;;;;;;5106875;27;20055;-74
2022/06/03 07:26:37;;;;;;;4.80;3.50;;;15.80;99.90;;;;;;5106956;27;20053;-75
2022/06/03 07:29:34;;;;;;;6.88;3.78;;;15.90;99.90;;;;;;5103781;27;20055;-75
2022/06/03 07:32:12;;;;;;;6.85;3.58;;;16.00;99.90;;;;;;5105179;27;20441;-75
2022/06/03 07:34:45;;;;;;;6.93;3.60;;;16.10;99.90;;;;;;5077364;28;20069;-75
2022/06/03 07:37:15;;;;;;;6.10;3.33;;;16.20;99.90;;;;;;5105900;28;20131;-74
2022/06/03 07:40:08;;;;;;;5.47;3.22;;;16.30;99.90;;;;;;5103468;28;20048;-75
2022/06/03 07:42:46;;;;;;;4.50;3.00;;;16.40;99.90;;;;;;5101066;28;20062;-73
2022/06/03 07:45:33;;;;;;;6.55;3.20;;;16.50;99.90;;;;;;5107486;28;20500;-74
2022/06/03 07:48:00;;;;;;;6.43;3.30;;;16.60;99.90;;;;;;5108196;27;20444;-74
2022/06/03 07:50:29;;;;;;;4.95;3.03;;;16.60;99.90;;;;;;5112200;28;20076;-75
2022/06/03 07:53:07;;;;;;;4.95;3.30;;;16.70;99.90;;;;;;5074212;28;20060;-75
2022/06/03 07:55:35;;;;;;;6.22;3.38;;;16.80;99.90;;;;;;5111348;28;20078;-75
2022/06/03 07:58:15;;;;;;;4.97;3.40;;;16.90;99.90;;;;;;5111655;28;20051;-75
2022/06/03 08:00:44;;;;;;;4.28;2.70;;;17.00;99.90;;;;;;5110069;28;20047;-76
2022/06/03 08:03:24;;;;;;;5.35;3.22;;;17.10;99.90;;;;;;5092459;28;20051;-73
2022/06/03 08:05:57;;;;;;;5.28;3.13;;;17.10;99.90;;;;;;5093510;28;20044;-75
2022/06/03 08:11:18;;;;;;;4.10;2.88;;;17.30;99.90;;;;;;5106213;28;20143;-74
2022/06/03 08:13:49;;;;;;;4.53;3.03;;;17.40;99.90;;;;;;5105406;28;20055;-73
2022/06/03 08:16:36;;;;;;;5.65;3.00;;;17.50;99.90;;;;;;5111415;28;20047;-73
2022/06/03 08:19:30;;;;;;;4.95;3.13;;;17.60;99.90;;;;;;5103863;28;20055;-76
2022/06/03 08:21:58;;;;;;;4.93;2.70;;;17.70;99.90;;;;;;5088661;28;20062;-74
2022/06/03 08:24:34;;;;;;;4.90;3.05;;;17.70;99.90;;;;;;5105158;28;20084;-78
2022/06/03 08:27:05;;;;;;;4.60;3.10;;;17.80;99.90;;;;;;5093263;28;20083;-76
2022/06/03 08:29:34;;;;;;;5.70;3.20;;;17.90;99.90;;;;;;5103825;28;20467;-77
2022/06/03 08:32:01;;;;;;;4.68;2.70;;;18.00;99.90;;;;;;5091912;28;20047;-75
2022/06/03 08:34:38;;;;;;;4.57;2.63;;;18.10;99.90;;;;;;5102588;28;20051;-77
2022/06/03 08:37:06;;;;;;;5.28;2.65;;;18.20;99.90;;;;;;5110708;28;20083;-73
2022/06/03 08:39:33;;;;;;;4.00;2.83;;;18.30;99.90;;;;;;5110669;28;20047;-74
2022/06/03 08:42:11;;;;;;;5.57;3.03;;;18.30;99.90;;;;;;5107208;28;20077;-74
2022/06/03 08:44:42;;;;;;;4.70;2.92;;;18.50;99.90;;;;;;5111308;28;20395;-75
2022/06/03 08:47:36;;;;;;;5.15;2.90;;;18.50;99.90;;;;;;5110266;28;20051;-72
2022/06/03 08:50:06;;;;;;;3.70;2.50;;;18.60;99.90;;;;;;5109822;28;20638;-73
2022/06/03 08:52:34;;;;;;;3.25;2.63;;;18.60;99.90;;;;;;5110453;28;20051;-73
2022/06/03 08:55:08;;;;;;;4.70;2.60;;;18.60;99.90;;;;;;5109621;28;20062;-74
2022/06/03 08:57:43;;;;;;;4.18;2.70;;;18.70;99.90;;;;;;5110994;28;20066;-73
2022/06/03 09:00:16;;;;;;;4.35;2.45;;;18.70;99.90;;;;;;5105044;28;20114;-71
2022/06/03 09:02:51;;;;;;;4.50;2.75;;;18.80;99.90;;;;;;5103664;28;20056;-70
2022/06/03 09:05:30;;;;;;;4.70;2.60;;;18.90;99.90;;;;;;5104580;28;20054;-73
2022/06/03 09:08:01;;;;;;;4.30;2.45;;;19.00;99.90;;;;;;5101434;28;20510;-74
2022/06/03 09:10:41;;;;;;;3.60;2.10;;;19.00;99.90;;;;;;5110243;28;20483;-74
2022/06/03 09:13:35;;;;;;;3.25;2.40;;;19.10;99.90;;;;;;5110261;28;20063;-74
2022/06/03 09:16:05;;;;;;;4.10;2.25;;;19.20;99.90;;;;;;5060447;28;20059;-73
2022/06/03 09:18:42;;;;;;;4.00;2.05;;;19.30;99.90;;;;;;5110190;28;20048;-74
2022/06/03 09:21:13;;;;;;;3.47;2.10;;;19.40;99.90;;;;;;5104037;28;20055;-71
2022/06/03 09:23:54;;;;;;;4.05;1.83;;;19.50;99.90;;;;;;5087276;28;20055;-70
2022/06/03 09:26:29;;;;;;;4.18;2.20;;;19.60;99.90;;;;;;5102203;28;20510;-74
2022/06/03 09:28:57;;;;;;;3.38;1.95;;;19.60;99.90;;;;;;5078813;28;20083;-74
2022/06/03 09:31:24;;;;;;;5.68;2.50;;;19.60;99.90;;;;;;5109570;28;20082;-75
2022/06/03 09:33:52;;;;;;;4.88;2.60;;;19.60;99.90;;;;;;5114025;28;20107;-72
2022/06/03 09:36:20;;;;;;;4.50;2.20;;;19.70;99.90;;;;;;5114613;28;20047;-73
2022/06/03 09:38:51;;;;;;;3.17;2.28;;;19.70;99.90;;;;;;5113379;28;20043;-74
2022/06/03 09:41:21;;;;;;;4.60;1.75;;;19.70;99.90;;;;;;5111712;28;20043;-73
2022/06/03 09:43:50;;;;;;;4.25;2.30;;;19.70;99.90;;;;;;5088855;28;20043;-72
2022/06/03 09:46:17;;;;;;;3.08;2.20;;;19.70;99.90;;;;;;5092163;28;20063;-71
2022/06/03 09:48:43;;;;;;;2.72;2.25;;;19.80;99.90;;;;;;5113982;28;20517;-71
2022/06/03 09:51:15;;;;;;;6.10;2.38;;;19.90;99.90;;;;;;5113360;28;20055;-74
2022/06/03 09:53:43;;;;;;;4.05;2.20;;;19.90;99.90;;;;;;5095463;28;20443;-73
2022/06/03 09:56:19;;;;;;;3.25;2.20;;;20.00;99.90;;;;;;5114149;28;20493;-73
2022/06/03 09:58:46;;;;;;;4.43;2.33;;;19.90;99.90;;;;;;5095824;28;20083;-73
2022/06/03 10:01:12;;;;;;;3.72;2.20;;;19.90;99.90;;;;;;5112978;28;20093;-71
2022/06/03 10:03:39;;;;;;;4.47;2.83;;;19.90;99.90;;;;;;5113661;28;20053;-71
2022/06/03 10:06:05;;;;;;;3.25;1.88;;;19.90;99.90;;;;;;5113818;28;20083;-74
2022/06/03 10:14:04;;;;;;;3.53;2.13;;;20.10;99.90;;;;;;5110346;28;20066;-75
2022/06/03 10:16:31;;;;;;;5.15;2.28;;;20.20;99.90;;;;;;5092304;28;20040;-73
2022/06/03 10:18:56;;;;;;;3.10;2.40;;;20.30;99.90;;;;;;5113188;28;20047;-71
2022/06/03 10:21:22;;;;;;;3.58;2.35;;;20.30;99.90;;;;;;5112534;28;20138;-72
2022/06/03 10:23:58;;;;;;;2.60;2.05;;;20.30;99.90;;;;;;5109838;28;20459;-72
2022/06/03 10:26:34;;;;;;;2.92;2.03;;;20.20;99.90;;;;;;5105395;28;20051;-73
2022/06/03 10:29:07;;;;;;;3.65;2.25;;;20.20;99.90;;;;;;5112441;28;20054;-72
2022/06/03 10:31:35;;;;;;;4.72;2.20;;;20.20;99.90;;;;;;5109895;28;20046;-72
2022/06/03 10:34:05;;;;;;;4.05;2.05;;;20.20;99.90;;;;;;5094461;28;20109;-72
2022/06/03 10:36:41;;;;;;;4.43;2.05;;;20.30;99.90;;;;;;5108476;28;20118;-74
2022/06/03 10:39:09;;;;;;;3.85;2.08;;;20.40;99.90;;;;;;5113335;28;20043;-73
2022/06/03 10:41:54;;;;;;;2.75;1.95;;;20.40;99.90;;;;;;5097615;28;20442;-75
2022/06/03 10:44:26;;;;;;;3.43;2.07;;;20.50;99.90;;;;;;5105583;28;20035;-73
2022/06/03 10:46:57;;;;;;;3.30;2.50;;;20.50;99.90;;;;;;5113241;28;20122;-74
2022/06/03 10:49:27;;;;;;;4.13;2.30;;;20.50;99.90;;;;;;5112707;28;20087;-74
2022/06/03 11:02:58;;;;;;;3.53;2.10;;;20.40;99.90;;;;;;5111914;28;20449;-72
2022/06/03 11:05:29;;;;;;;2.53;1.75;;;20.40;99.90;;;;;;5104266;28;20051;-72
2022/06/03 11:08:05;;;;;;;3.00;2.13;;;20.40;99.90;;;;;;5112409;28;20047;-71
2022/06/03 11:10:41;;;;;;;3.33;2.13;;;20.60;99.90;;;;;;5112593;28;20065;-75
2022/06/03 11:13:09;;;;;;;;;;;20.70;99.90;;;;;;5106863;28;20083;-73
2022/06/03 11:15:44;;;;;;;3.45;2.10;;;20.60;99.90;;;;;;5112474;28;19923;-74
2022/06/03 11:18:13;;;;;;;15.30;5.30;;;20.60;99.90;;;;;;5112503;28;20047;-74
2022/06/03 11:20:40;;;;;;;4.93;2.40;;;20.50;99.90;;;;;;5111945;28;20048;-74
2022/06/03 11:23:10;;;;;;;15.48;4.68;;;20.50;99.90;;;;;;5109554;28;20086;-73
2022/06/03 11:25:43;;;;;;;4.32;2.50;;;20.60;99.90;;;;;;5099342;28;20361;-75
2022/06/03 11:28:23;;;;;;;3.95;2.53;;;20.60;99.90;;;;;;5111432;28;20055;-75
2022/06/03 11:30:52;;;;;;;3.50;2.50;;;20.70;99.90;;;;;;5112488;28;20043;-74
2022/06/03 11:33:36;;;;;;;4.90;2.42;;;20.60;99.90;;;;;;5110910;28;20503;-76
2022/06/03 11:36:24;;;;;;;5.38;2.58;;;20.60;99.90;;;;;;5106600;28;20036;-75
2022/06/03 11:38:57;;;;;;;3.53;2.28;;;20.70;99.90;;;;;;5112052;28;20059;-75
2022/06/03 11:41:37;;;;;;;3.55;1.95;;;20.70;99.90;;;;;;5095833;28;20185;-74
2022/06/03 11:44:29;;;;;;;3.25;2.50;;;20.70;99.90;;;;;;5107486;28;20563;-73
2022/06/03 11:47:12;;;;;;;5.45;2.88;;;20.90;99.90;;;;;;5105026;28;20135;-72
2022/06/03 11:49:38;;;;;;;3.42;2.10;;;20.90;99.90;;;;;;5108910;28;20055;-75
2022/06/03 11:52:04;;;;;;;3.58;2.47;;;20.70;99.90;;;;;;5111880;28;20506;-74
2022/06/03 11:54:31;;;;;;;3.00;1.95;;;20.80;99.90;;;;;;5111264;28;20046;-72
2022/06/03 11:57:02;;;;;;;4.13;2.30;;;20.80;99.90;;;;;;5111301;28;20090;-71
2022/06/03 11:59:30;;;;;;;3.13;2.20;;;20.60;99.90;;;;;;5105389;27;20059;-73
2022/06/03 12:02:33;;;;;;;3.28;2.00;;;20.80;99.90;;;;;;5118287;27;20047;-72
2022/06/03 12:05:12;;;;;;;4.63;2.28;;;20.90;99.90;;;;;;5124592;27;20047;-71
2022/06/03 12:07:58;;;;;;;2.83;2.33;;;20.80;99.90;;;;;;5106347;28;20134;-74
2022/06/03 12:10:45;;;;;;;4.60;1.80;;;20.80;99.90;;;;;;5110851;28;20047;-74
2022/06/03 12:13:27;;;;;;;2.97;2.17;;;20.90;99.90;;;;;;5107490;28;20080;-74
2022/06/03 12:15:58;;;;;;;3.40;2.30;;;21.00;99.90;;;;;;5111656;28;20094;-72
2022/06/03 12:18:37;;;;;;;3.45;2.05;;;21.00;99.90;;;;;;5111086;28;20047;-75
2022/06/03 12:21:28;;;;;;;3.03;2.13;;;21.00;99.90;;;;;;5110887;28;20052;-72
2022/06/03 12:23:54;;;;;;;2.95;2.08;;;21.00;99.90;;;;;;5111422;28;20043;-72
2022/06/03 12:26:31;;;;;;;3.00;2.20;;;21.00;99.90;;;;;;5095358;28;20445;-70
2022/06/03 12:29:25;;;;;;;3.40;2.30;;;21.10;99.90;;;;;;5103905;28;20122;-73
2022/06/03 12:31:51;;;;;;;3.42;2.33;;;21.00;99.90;;;;;;5097186;28;20498;-73
2022/06/03 12:34:24;;;;;;;3.50;2.03;;;21.10;99.90;;;;;;5092153;28;20774;-73
2022/06/03 12:37:00;;;;;;;3.67;2.50;;;21.10;99.90;;;;;;5110654;28;20484;-73
2022/06/03 12:39:28;;;;;;;3.92;2.15;;;21.30;99.90;;;;;;5108537;28;20035;-72
2022/06/03 12:41:56;;;;;;;3.33;2.10;;;21.30;99.90;;;;;;5110892;28;20646;-73
2022/06/03 12:44:39;;;;;;;3.03;1.98;;;21.30;99.90;;;;;;5118805;27;20499;-72
2022/06/03 12:47:28;;;;;;;3.70;2.00;;;21.10;99.90;;;;;;5116306;27;20054;-72
2022/06/03 12:50:05;;;;;;;3.55;2.20;;;21.10;99.90;;;;;;5096440;28;20480;-71
2022/06/03 12:52:31;;;;;;;4.13;1.95;;;21.20;99.90;;;;;;5108196;28;20051;-70
2022/06/03 12:55:13;;;;;;;3.58;1.90;;;21.20;99.90;;;;;;5110554;28;20169;-70
2022/06/03 12:57:54;;;;;;;3.30;2.30;;;21.20;99.90;;;;;;5110354;28;20039;-70
2022/06/03 13:00:20;;;;;;;3.35;2.30;;;21.20;99.90;;;;;;5102301;28;20043;-70
2022/06/03 13:03:05;;;;;;;4.00;2.75;;;21.20;99.90;;;;;;5107843;28;20399;-70
2022/06/03 13:05:44;;;;;;;3.22;2.30;;;21.20;99.90;;;;;;5109716;28;20126;-71
2022/06/03 13:08:28;;;;;;;4.50;2.78;;;21.20;99.90;;;;;;5104992;28;20450;-72
2022/06/03 13:10:59;;;;;;;3.22;2.10;;;21.20;99.90;;;;;;5096562;28;20048;-70
2022/06/03 13:13:31;;;;;;;4.72;2.40;;;21.10;99.90;;;;;;5106056;28;20089;-70
2022/06/03 13:15:59;;;;;;;3.40;2.00;;;21.10;99.90;;;;;;5115389;28;20112;-73
2022/06/03 13:18:36;;;;;;;2.97;2.30;;;21.20;99.90;;;;;;5114172;28;20051;-72
2022/06/03 13:21:02;;;;;;;2.30;1.80;;;21.20;99.90;;;;;;5114932;28;20066;-72
2022/06/03 13:23:54;;;;;;;3.88;1.95;;;21.20;99.90;;;;;;5110501;28;20594;-70
2022/06/03 13:26:20;;;;;;;3.33;2.10;;;21.30;99.90;;;;;;5106106;28;20048;-70
2022/06/03 13:28:48;;;;;;;4.22;2.10;;;21.30;99.90;;;;;;5114785;28;20069;-69
2022/06/03 13:31:38;;;;;;;2.60;1.88;;;21.30;99.90;;;;;;5111654;28;20070;-70
2022/06/03 13:36:35;;;;;;;2.50;1.70;;;21.30;99.90;;;;;;5089802;28;20429;-70
2022/06/03 13:39:03;;;;;;;3.65;1.83;;;21.40;99.90;;;;;;5114063;28;20090;-71
2022/06/03 13:44:46;;;;;;;3.17;1.90;;;21.50;99.90;;;;;;5113146;28;20062;-71
2022/06/03 13:47:19;;;;;;;2.03;1.60;;;21.50;99.90;;;;;;5112928;28;20043;-70
2022/06/03 13:49:47;;;;;;;2.45;1.80;;;21.60;99.90;;;;;;5105987;28;20055;-71
2022/06/03 13:52:20;;;;;;;3.63;2.00;;;21.70;99.90;;;;;;5113722;28;20059;-70
2022/06/03 13:54:50;;;;;;;2.97;1.65;;;21.70;99.90;;;;;;5114082;28;20087;-69
2022/06/03 13:57:27;;;;;;;2.35;1.70;;;21.80;99.90;;;;;;5110906;28;20149;-73
2022/06/03 14:00:23;;;;;;;3.45;2.00;;;21.90;99.90;;;;;;5110331;28;20039;-70
2022/06/03 14:03:03;;;;;;;4.37;1.90;;;21.90;99.90;;;;;;5109142;28;20484;-71
2022/06/03 14:05:46;;;;;;;2.72;1.95;;;21.80;99.90;;;;;;5109339;28;20127;-71
2022/06/03 14:08:33;;;;;;;2.53;1.58;;;21.70;99.90;;;;;;5102019;28;20481;-70
2022/06/03 14:11:04;;;;;;;2.65;1.50;;;21.70;99.90;;;;;;5107183;27;20877;-72
2022/06/03 14:14:03;;;;;;;3.50;1.88;;;21.80;99.90;;;;;;5103322;28;20044;-70
2022/06/03 14:16:49;;;;;;;2.55;1.67;;;21.80;99.90;;;;;;5089760;28;20498;-70
2022/06/03 14:19:26;;;;;;;2.40;1.65;;;21.90;99.90;;;;;;5087478;28;20043;-71
2022/06/03 14:21:54;;;;;;;3.15;1.90;;;21.80;99.90;;;;;;5095773;28;20056;-71
2022/06/03 14:24:30;;;;;;;2.80;1.70;;;21.80;99.90;;;;;;5102306;28;20391;-71
2022/06/03 14:27:02;;;;;;;2.20;1.30;;;21.80;99.90;;;;;;5109484;28;20131;-73
2022/06/03 14:29:49;;;;;;;3.25;1.60;;;21.70;99.90;;;;;;5098296;28;20047;-70
2022/06/03 14:32:24;;;;;;;2.15;1.20;;;21.70;99.90;;;;;;5112951;28;20047;-71
2022/06/03 14:34:54;;;;;;;3.60;1.52;;;21.70;99.90;;;;;;5082236;28;20111;-71